ADDS TAF Board (Experimental) INFO Settings
IDs: Format: Expanded Condensed

KSLC - Salt Lake City Intl, UT, US

Issued at 0201 UTC 02 Sep 2015
Updated at: 0422 UTC 02 Sep 2015
Time0353Z 02/05Z 02/06Z 02/07Z 02/08Z 02/09Z 02/10Z 02/11Z 02/12Z 02/13Z 02/14Z 02/15Z 02/16Z 02/17Z
Type OBS PRVL PRVL PRVL PRVL PRVL PRVL PRVL PRVL PRVL PRVL PRVL PRVL PRVL
VIS 10 >6 >6 >6 >6 >6 >6 >6 >6 >6 >6 >6 >6 >6
CIG -- -- -- -- -- -- -- -- -- -- -- -- -- --
Cover FEW SCT SCT SCT SCT SCT SCT SCT SCT SCT SCT SCT SCT SCT
FltCat VFR VFR VFR VFR VFR VFR VFR VFR VFR VFR VFR VFR VFR VFR
WX -- -- -- -- -- -- -- -- -- -- -- -- -- --
WDir 160 160 160 160 160 160 160 160 160 160 160 170 170 170
WSpd 9 14 14 14 14 14 14 14 14 14 14 19 19 19
WGst -- -- -- -- -- -- -- -- -- -- -- 27 27 27
R14/32
XWnd -1 -2 -2 -2 -2 -2 -2 -2 -2 -2 -2 -6 -6 -6
XGst -- -- -- -- -- -- -- -- -- -- -- -8 -8 -8
HWnd 9 14 14 14 14 14 14 14 14 14 14 18 18 18
HGst -- -- -- -- -- -- -- -- -- -- -- 26 26 26
R16/34
XWnd 2 4 4 4 4 4 4 4 4 4 4 2 2 2
XGst -- -- -- -- -- -- -- -- -- -- -- 2 2 2
HWnd 9 14 14 14 14 14 14 14 14 14 14 19 19 19
HGst -- -- -- -- -- -- -- -- -- -- -- 27 27 27
R17/35
XWnd 3 5 5 5 5 5 5 5 5 5 5 3 3 3
XGst -- -- -- -- -- -- -- -- -- -- -- 5 5 5
HWnd 8 13 13 13 13 13 13 13 13 13 13 19 19 19
HGst -- -- -- -- -- -- -- -- -- -- -- 27 27 27
RHB/18
XWnd -3 -5 -5 -5 -5 -5 -5 -5 -5 -5 -5 -3 -3 -3
XGst -- -- -- -- -- -- -- -- -- -- -- -5 -5 -5
HWnd -8 -13 -13 -13 -13 -13 -13 -13 -13 -13 -13 -19 -19 -19
HGst -- -- -- -- -- -- -- -- -- -- -- -27 -27 -27

NOTE: TEMPO conditions in [brackets]. Keep in mind TEMPO conditions might be better (lower impact) than prevailing conditions.

Raw TAF
KSLC 020201Z 0202/0306 16014KT P6SM FEW090 SCT150
  FM021500 17019G27KT P6SM FEW090 SCT200
  FM030300 16012G19KT P6SM BKN200


Raw METAR
KSLC 020353Z 16009KT 10SM FEW140 27/02 A2991 RMK AO2 SLP066 T02720022
KSLC 020253Z 17008KT 10SM SCT110 SCT150 SCT220 28/03 A2989 RMK AO2 SLP061 60000 T02830033 53005
KSLC 020153Z 18005KT 10SM SCT110 BKN150 BKN220 30/04 A2987 RMK AO2 PK WND 20033/0054 RAE06 SLP053 P0000 T03000039

METAR Board
Radar Display
Forecast Discussion

TAF Board Legend

Potential Impact
Threat None Slight Moderate High
Visibility (sm) ≥5.1 5.1>X≥3 3>X≥1 <1
Ceiling (100 ft) ≥30.1 30.1>X≥10 10>X≥5 <5
Wind Speed (kt) <10 10≤X<20 20≤X<30 ≥30
Wind Gust (kt) <15 15≤X<25 25≤X<35 ≥35
Weather No Wx Reported VCTS,-TS,-FZRA,SN TS,FZRA +TS,+FZRA,+SN